Time;durP1;ratioP1;P1;durP2;ratioP2;P2;SDS_P1;SDS_P2;PMS_P1;PMS_P2;Temp;Humidity;BMP_temperature;BMP_pressure;BME280_temperature;BME280_humidity;BME280_pressure;Samples;Min_cycle;Max_cycle;Signal;HPM_P1;HPM_P2
2022/12/07 00:01:43;;;;;;;16.10;8.57;;;;;;;3.71;59.38;99701.63;4396199;32;20104;-88
2022/12/07 00:04:11;;;;;;;16.17;8.40;;;;;;;3.86;59.39;99698.97;4396878;32;20089;-89
2022/12/07 00:06:43;;;;;;;17.87;8.25;;;;;;;3.86;59.39;99701.56;4393275;32;20161;-88
2022/12/07 00:09:13;;;;;;;17.83;8.52;;;;;;;3.84;59.39;99690.41;4390686;32;20136;-89
2022/12/07 00:11:39;;;;;;;12.45;7.30;;;;;;;3.76;59.39;99697.31;4375411;32;20905;-89
2022/12/07 00:14:07;;;;;;;16.08;8.25;;;;;;;3.73;59.38;99689.59;4398524;32;20145;-89
2022/12/07 00:16:33;;;;;;;16.87;8.18;;;;;;;3.72;59.38;99684.47;4397896;32;20097;-88
2022/12/07 00:18:59;;;;;;;15.23;8.70;;;;;;;3.74;59.38;99678.44;4410890;32;20113;-89
2022/12/07 00:21:26;;;;;;;16.58;8.15;;;;;;;3.70;59.39;99677.59;4385818;32;20153;-88
2022/12/07 00:23:52;;;;;;;14.45;7.72;;;;;;;3.83;59.38;99677.53;4397466;32;20070;-88
2022/12/07 00:26:28;;;;;;;14.57;7.80;;;;;;;3.62;59.38;99673.37;4400253;32;20136;-85
2022/12/07 00:28:58;;;;;;;19.05;8.32;;;;;;;3.53;59.38;99673.41;4385967;32;20101;-84
2022/12/07 00:31:29;;;;;;;15.32;7.47;;;;;;;3.44;59.36;99670.88;4396676;32;20080;-87
2022/12/07 00:33:54;;;;;;;12.45;6.68;;;;;;;3.43;59.36;99669.16;4403043;32;20111;-87
2022/12/07 00:36:21;;;;;;;18.00;8.55;;;;;;;3.46;59.36;99666.56;4398083;32;20125;-88
2022/12/07 00:38:46;;;;;;;14.30;8.20;;;;;;;3.55;59.38;99675.13;4385485;32;20137;-88
2022/12/07 00:41:17;;;;;;;14.45;8.63;;;;;;;3.50;59.37;99670.84;4379208;32;20078;-88
2022/12/07 00:43:43;;;;;;;16.52;7.62;;;;;;;3.54;59.38;99667.38;4415627;32;20461;-88
2022/12/07 00:46:08;;;;;;;16.50;8.27;;;;;;;3.54;59.38;99667.38;4377785;32;20727;-88
2022/12/07 00:48:34;;;;;;;16.10;8.00;;;;;;;3.51;59.37;99665.69;4400054;32;20098;-88
2022/12/07 00:50:59;;;;;;;15.80;8.05;;;;;;;3.60;59.38;99670.81;4400070;32;20121;-88
2022/12/07 00:53:25;;;;;;;14.50;7.40;;;;;;;3.59;59.37;99671.66;4410155;32;20100;-88
2022/12/07 00:55:50;;;;;;;13.85;7.15;;;;;;;3.68;59.37;99668.19;4400670;32;20122;-88
2022/12/07 00:58:16;;;;;;;17.02;8.20;;;;;;;3.49;59.37;99671.72;4400343;32;20145;-88
2022/12/07 01:00:42;;;;;;;17.55;8.30;;;;;;;3.36;59.36;99671.78;4405395;32;20141;-88
2022/12/07 01:03:08;;;;;;;18.33;8.27;;;;;;;3.45;59.36;99664.88;4408549;32;20465;-88
2022/12/07 01:05:33;;;;;;;14.20;7.68;;;;;;;3.24;59.36;99664.09;4400075;32;20168;-88
2022/12/07 01:07:59;;;;;;;16.48;8.80;;;;;;;3.26;59.36;99661.50;4395810;32;20165;-85
2022/12/07 01:10:25;;;;;;;15.20;7.85;;;;;;;3.32;59.37;99653.78;4400082;32;20108;-88
2022/12/07 01:12:51;;;;;;;20.92;8.90;;;;;;;3.24;59.35;99650.37;4397491;32;20136;-87
2022/12/07 01:15:16;;;;;;;13.93;7.75;;;;;;;3.22;59.35;99660.66;4399722;32;20110;-87
2022/12/07 01:17:41;;;;;;;16.12;7.62;;;;;;;3.28;59.36;99662.34;4409366;32;20177;-87
2022/12/07 01:20:07;;;;;;;15.52;8.00;;;;;;;3.54;59.38;99664.81;4404873;32;20102;-87
2022/12/07 01:22:37;;;;;;;20.70;9.45;;;;;;;3.72;59.39;99661.28;4399679;32;20112;-88
2022/12/07 01:25:04;;;;;;;17.48;8.32;;;;;;;3.49;59.37;99662.28;4398193;32;20133;-88
2022/12/07 01:27:29;;;;;;;15.88;8.13;;;;;;;3.32;59.36;99657.22;4410363;32;20145;-87
2022/12/07 01:29:55;;;;;;;15.95;8.70;;;;;;;3.36;59.36;99653.78;4406541;32;20169;-86
2022/12/07 01:32:20;;;;;;;16.45;8.25;;;;;;;3.29;59.35;99653.78;4411925;32;20401;-87
2022/12/07 01:34:47;;;;;;;14.35;7.47;;;;;;;3.17;59.34;99656.41;4387621;32;20377;-87
2022/12/07 01:37:13;;;;;;;18.00;7.57;;;;;;;3.27;59.36;99658.94;4391750;32;20113;-87
2022/12/07 01:39:38;;;;;;;15.32;7.35;;;;;;;3.46;59.37;99652.00;4386337;32;22955;-86
2022/12/07 01:42:04;;;;;;;16.77;7.72;;;;;;;3.47;59.37;99660.56;4411598;32;20101;-87
2022/12/07 01:44:31;;;;;;;16.90;7.82;;;;;;;3.23;59.35;99662.38;4398828;32;20102;-88
2022/12/07 01:46:58;;;;;;;16.35;8.38;;;;;;;3.31;59.37;99659.78;4398868;32;20096;-87
2022/12/07 01:49:44;;;;;;;15.80;8.10;;;;;;;3.56;59.38;99651.09;4387281;32;20100;-87
2022/12/07 01:52:12;;;;;;;15.75;7.75;;;;;;;3.53;59.38;99645.09;4411952;32;20093;-88
2022/12/07 01:54:41;;;;;;;14.52;8.05;;;;;;;3.51;59.37;99644.25;4411432;32;20106;-88
2022/12/07 01:57:07;;;;;;;16.77;8.03;;;;;;;3.56;59.38;99637.38;4389008;32;20124;-88
2022/12/07 01:59:32;;;;;;;15.90;8.05;;;;;;;3.35;59.36;99644.34;4399660;32;20190;-87
2022/12/07 02:01:57;;;;;;;13.48;7.35;;;;;;;3.58;59.37;99638.22;4387085;32;20118;-87
2022/12/07 02:04:23;;;;;;;18.85;7.85;;;;;;;3.81;59.38;99636.38;4394052;32;20145;-87
2022/12/07 02:06:48;;;;;;;18.17;7.57;;;;;;;3.59;59.38;99637.34;4412255;32;20897;-87
2022/12/07 02:09:14;;;;;;;13.52;7.50;;;;;;;3.62;59.38;99637.34;4404647;32;20101;-87
2022/12/07 02:11:39;;;;;;;11.95;6.70;;;;;;;3.74;59.38;99633.81;4398229;32;20205;-87
2022/12/07 02:14:05;;;;;;;15.38;7.03;;;;;;;3.77;59.39;99631.22;4380281;32;20130;-88
2022/12/07 02:16:30;;;;;;;12.57;7.30;;;;;;;3.77;59.39;99639.78;4388538;32;20392;-88
2022/12/07 02:18:59;;;;;;;12.40;6.50;;;;;;;3.92;59.40;99636.28;4399563;32;20090;-88
2022/12/07 02:21:33;;;;;;;13.38;6.45;;;;;;;4.06;59.40;99637.03;4407146;32;20073;-88
2022/12/07 02:24:12;;;;;;;13.35;7.60;;;;;;;4.09;59.40;99637.03;4408377;32;20122;-88
2022/12/07 02:26:38;;;;;;;14.13;7.10;;;;;;;4.03;59.40;99636.22;4398483;32;20161;-88
2022/12/07 02:29:21;;;;;;;10.50;6.43;;;;;;;4.06;59.41;99636.19;4414437;32;20112;-88
2022/12/07 02:31:50;;;;;;;13.18;6.30;;;;;;;4.10;59.41;99633.56;4398713;32;20086;-87
2022/12/07 02:34:33;;;;;;;12.55;6.47;;;;;;;4.13;59.41;99633.53;4389443;32;20132;-88
2022/12/07 02:37:01;;;;;;;12.07;6.20;;;;;;;4.22;59.42;99632.59;4396797;32;20115;-88
2022/12/07 02:39:41;;;;;;;16.73;6.12;;;;;;;4.29;59.42;99629.13;4389513;32;20158;-87
2022/12/07 02:42:14;;;;;;;11.80;6.05;;;;;;;4.39;59.42;99624.75;4396653;32;20108;-88
2022/12/07 02:44:39;;;;;;;10.00;6.00;;;;;;;4.39;59.42;99625.59;4390514;32;20101;-88
2022/12/07 02:47:08;;;;;;;11.48;5.70;;;;;;;4.51;59.43;99624.66;4396534;32;20138;-88
2022/12/07 02:49:33;;;;;;;11.02;6.45;;;;;;;4.29;59.42;99624.84;4384415;32;20094;-88
2022/12/07 02:51:59;;;;;;;10.10;5.78;;;;;;;4.43;59.43;99616.09;4392285;32;20458;-88
2022/12/07 02:54:24;;;;;;;12.18;6.75;;;;;;;4.32;59.41;99619.66;4407390;32;20188;-87
2022/12/07 02:57:09;;;;;;;12.70;6.62;;;;;;;4.25;59.41;99617.12;4386501;32;20224;-87
2022/12/07 03:00:09;;;;;;;12.63;6.35;;;;;;;4.31;59.41;99615.38;4408985;32;20113;-88
2022/12/07 03:03:09;;;;;;;12.43;6.18;;;;;;;4.46;59.42;99603.19;4405960;32;20101;-88
2022/12/07 03:05:34;;;;;;;10.57;5.85;;;;;;;4.54;59.43;99610.00;4398564;32;20070;-87
2022/12/07 03:08:08;;;;;;;13.62;6.28;;;;;;;4.47;59.42;99603.16;4409709;32;20132;-88
2022/12/07 03:10:51;;;;;;;11.55;5.82;;;;;;;4.48;59.43;99616.91;4396862;32;20111;-88
2022/12/07 03:13:28;;;;;;;9.07;5.55;;;;;;;4.70;59.43;99600.38;4422881;32;20113;-88
2022/12/07 03:16:02;;;;;;;11.27;6.00;;;;;;;4.54;59.43;99604.00;4387308;32;20152;-88
2022/12/07 03:18:30;;;;;;;11.57;6.35;;;;;;;4.49;59.44;99604.00;4400998;32;20171;-89
2022/12/07 03:20:59;;;;;;;10.98;5.82;;;;;;;4.54;59.43;99602.25;4386811;32;20520;-89
2022/12/07 03:23:25;;;;;;;11.00;5.87;;;;;;;4.56;59.43;99603.09;4376318;32;20116;-89
2022/12/07 03:25:53;;;;;;;10.95;6.18;;;;;;;4.71;59.43;99601.22;4399407;32;20109;-89
2022/12/07 03:28:20;;;;;;;10.70;5.82;;;;;;;4.77;59.44;99596.87;4392091;32;20078;-89
2022/12/07 03:30:49;;;;;;;10.07;6.28;;;;;;;4.79;59.45;99594.28;4396794;32;20080;-89
2022/12/07 03:33:23;;;;;;;13.35;6.05;;;;;;;4.89;59.45;99590.69;4390321;32;20070;-88
2022/12/07 03:36:08;;;;;;;12.32;6.25;;;;;;;4.83;59.44;99593.34;4399105;32;20094;-87
2022/12/07 03:38:59;;;;;;;11.07;6.10;;;;;;;4.85;59.44;99594.19;4383081;32;20829;-87
2022/12/07 03:41:29;;;;;;;10.98;5.93;;;;;;;5.15;59.46;99604.13;4424284;32;20081;-86
2022/12/07 03:43:54;;;;;;;11.32;6.43;;;;;;;5.19;59.47;99595.47;4394775;32;20098;-86
2022/12/07 03:46:42;;;;;;;10.88;6.12;;;;;;;5.23;59.46;99604.06;4397868;32;20132;-87
2022/12/07 03:49:22;;;;;;;11.48;5.93;;;;;;;5.27;59.47;99610.88;4396048;32;20114;-86
2022/12/07 03:51:56;;;;;;;12.63;6.57;;;;;;;5.16;59.47;99605.84;4411055;32;20090;-86
2022/12/07 03:54:28;;;;;;;12.60;5.68;;;;;;;5.26;59.47;99613.50;4424445;32;20534;-86
2022/12/07 03:56:53;;;;;;;9.98;5.55;;;;;;;5.04;59.46;99615.47;4407513;32;20461;-86
2022/12/07 03:59:18;;;;;;;9.68;5.57;;;;;;;4.95;59.46;99621.56;4404670;32;20152;-86
2022/12/07 04:01:44;;;;;;;10.35;5.90;;;;;;;5.07;59.46;99611.13;4410301;32;20077;-86
2022/12/07 04:04:10;;;;;;;10.10;5.57;;;;;;;5.17;59.47;99601.53;4400779;32;20133;-86
2022/12/07 04:06:35;;;;;;;9.35;5.55;;;;;;;5.05;59.46;99606.88;4396529;32;20118;-88
2022/12/07 04:09:01;;;;;;;12.98;5.75;;;;;;;5.00;59.45;99609.50;4402051;32;20348;-87
2022/12/07 04:11:26;;;;;;;10.38;5.53;;;;;;;5.22;59.46;99610.94;4397964;32;20563;-87
2022/12/07 04:16:36;;;;;;;14.30;6.35;;;;;;;4.93;59.46;99608.69;4397311;32;20137;-88
2022/12/07 04:19:01;;;;;;;11.95;6.05;;;;;;;4.94;59.46;99604.41;4398827;32;20145;-88
2022/12/07 04:21:28;;;;;;;12.10;6.47;;;;;;;5.10;59.46;99605.94;4424507;32;20114;-89
2022/12/07 04:23:55;;;;;;;10.77;6.20;;;;;;;5.24;59.48;99609.19;4386660;32;20110;-88
2022/12/07 04:26:20;;;;;;;49.90;19.00;;;;;;;5.15;59.46;99606.72;4381432;32;20136;-87
2022/12/07 04:28:46;;;;;;;142.62;50.72;;;;;;;5.29;59.47;99611.72;4400975;32;20172;-88
2022/12/07 04:31:11;;;;;;;203.95;68.55;;;;;;;5.60;59.48;99611.31;4399838;32;20184;-88
2022/12/07 04:33:37;;;;;;;117.72;44.25;;;;;;;5.76;59.50;99598.16;4398913;32;20150;-89
2022/12/07 04:36:02;;;;;;;90.32;34.65;;;;;;;5.48;59.48;99599.44;4386580;32;20450;-89
2022/12/07 04:38:28;;;;;;;86.90;36.78;;;;;;;5.22;59.47;99608.38;4386135;32;20101;-87
2022/12/07 04:40:54;;;;;;;34.85;15.90;;;;;;;5.38;59.47;99611.59;4404360;32;20348;-87
2022/12/07 04:43:19;;;;;;;28.50;14.63;;;;;;;5.73;59.49;99605.94;4388290;32;20134;-87
2022/12/07 04:45:48;;;;;;;18.17;10.10;;;;;;;5.61;59.49;99608.69;4395868;32;20150;-88
2022/12/07 04:48:14;;;;;;;16.15;9.10;;;;;;;5.71;59.50;99604.28;4399627;32;20113;-88
2022/12/07 04:50:40;;;;;;;14.18;7.35;;;;;;;5.59;59.49;99610.44;4411679;32;20772;-87
2022/12/07 04:53:05;;;;;;;14.65;8.25;;;;;;;5.69;59.50;99611.19;4398547;32;20139;-87
2022/12/07 04:55:31;;;;;;;12.68;7.70;;;;;;;5.95;59.51;99613.41;4411268;32;20114;-85
2022/12/07 04:57:56;;;;;;;13.18;6.75;;;;;;;5.74;59.50;99620.56;4394474;32;20109;-88
2022/12/07 05:00:22;;;;;;;13.10;7.05;;;;;;;5.75;59.49;99616.25;4388289;32;20109;-87
2022/12/07 05:02:47;;;;;;;17.35;7.62;;;;;;;5.62;59.49;99618.16;4383888;32;20089;-87
2022/12/07 05:05:13;;;;;;;15.95;8.88;;;;;;;5.53;59.49;99626.03;4398272;32;20124;-87
2022/12/07 05:07:38;;;;;;;14.52;8.32;;;;;;;5.64;59.49;99616.41;4398974;32;20541;-87
2022/12/07 05:10:04;;;;;;;16.90;7.00;;;;;;;5.67;59.49;99613.75;4389303;32;20105;-88
2022/12/07 05:12:30;;;;;;;16.35;7.00;;;;;;;5.73;59.49;99618.88;4399634;32;20106;-84
2022/12/07 05:14:55;;;;;;;12.20;6.97;;;;;;;5.69;59.50;99622.38;4396266;32;20162;-87
2022/12/07 05:17:21;;;;;;;13.10;7.85;;;;;;;5.52;59.48;99626.91;4407452;32;20118;-87
2022/12/07 05:19:46;;;;;;;12.10;6.60;;;;;;;5.57;59.48;99616.50;4393300;32;20090;-87
2022/12/07 05:22:13;;;;;;;11.63;6.75;;;;;;;5.71;59.49;99612.87;4396038;32;20160;-88
2022/12/07 05:24:38;;;;;;;12.20;7.28;;;;;;;5.60;59.48;99612.16;4402446;32;20102;-89
2022/12/07 05:27:04;;;;;;;13.80;7.18;;;;;;;5.66;59.49;99606.91;4407669;32;20105;-89
2022/12/07 05:29:29;;;;;;;14.32;7.32;;;;;;;5.71;59.50;99605.13;4387672;32;20094;-89
2022/12/07 05:31:54;;;;;;;18.00;7.80;;;;;;;5.73;59.49;99605.09;4399859;32;20097;-88
2022/12/07 05:34:20;;;;;;;13.82;7.35;;;;;;;5.70;59.50;99602.56;4411589;32;20131;-86
2022/12/07 05:36:45;;;;;;;13.55;7.55;;;;;;;5.67;59.49;99602.59;4402483;32;20128;-88
2022/12/07 05:39:11;;;;;;;13.15;7.97;;;;;;;5.84;59.51;99595.44;4419091;32;20085;-88
2022/12/07 05:44:20;;;;;;;18.50;9.23;;;;;;;5.74;59.49;99599.91;4403925;32;20651;-88
2022/12/07 05:46:46;;;;;;;21.17;11.40;;;;;;;5.78;59.50;99598.97;4388606;32;20142;-87
2022/12/07 05:49:11;;;;;;;20.55;10.48;;;;;;;5.77;59.50;99588.69;4385574;32;21038;-88
2022/12/07 05:51:36;;;;;;;21.83;11.60;;;;;;;5.83;59.51;99599.75;4380926;32;20086;-87
2022/12/07 05:54:02;;;;;;;21.75;11.90;;;;;;;5.90;59.50;99594.53;4371210;32;20153;-87
2022/12/07 05:56:27;;;;;;;30.52;14.45;;;;;;;5.87;59.50;99598.81;4410327;32;20127;-87
2022/12/07 06:01:37;;;;;;;26.25;14.95;;;;;;;5.90;59.51;99603.13;4410640;32;20109;-88
2022/12/07 06:04:03;;;;;;;31.20;14.48;;;;;;;5.81;59.50;99605.81;4380441;32;20106;-88
2022/12/07 06:06:28;;;;;;;27.85;15.77;;;;;;;5.90;59.51;99608.28;4386617;32;20644;-87
2022/12/07 06:08:54;;;;;;;32.03;17.40;;;;;;;5.79;59.50;99611.03;4410960;32;20390;-87
2022/12/07 06:14:03;;;;;;;19.73;11.63;;;;;;;6.16;59.53;99607.91;4405982;32;20121;-87
2022/12/07 06:16:28;;;;;;;18.73;10.52;;;;;;;6.44;59.54;99605.69;4397511;32;20459;-87
2022/12/07 06:18:54;;;;;;;17.95;10.20;;;;;;;6.39;59.53;99603.19;4403050;32;20121;-87
2022/12/07 06:21:19;;;;;;;18.90;9.77;;;;;;;6.41;59.54;99598.84;4389801;32;20135;-87
2022/12/07 06:23:45;;;;;;;19.85;10.48;;;;;;;6.46;59.54;99603.94;4411806;32;20497;-87
2022/12/07 06:26:10;;;;;;;15.90;10.25;;;;;;;6.14;59.52;99607.03;4424137;32;20153;-88
2022/12/07 06:28:36;;;;;;;18.90;10.63;;;;;;;5.87;59.50;99613.47;4404216;32;20102;-88
2022/12/07 06:31:01;;;;;;;30.65;17.48;;;;;;;5.83;59.50;99614.41;4410485;32;20133;-88
2022/12/07 06:33:27;;;;;;;40.70;20.58;;;;;;;5.76;59.50;99616.22;4398948;32;20163;-87
2022/12/07 06:35:55;;;;;;;35.10;19.30;;;;;;;5.68;59.50;99615.50;4395806;32;20177;-87
2022/12/07 06:38:20;;;;;;;27.98;14.73;;;;;;;5.70;59.50;99616.31;4396641;32;20109;-86
2022/12/07 06:40:45;;;;;;;26.05;13.62;;;;;;;5.73;59.49;99616.28;4408072;32;20150;-88
2022/12/07 06:43:11;;;;;;;27.52;13.57;;;;;;;5.75;59.49;99621.41;4378779;32;20184;-87
2022/12/07 06:45:36;;;;;;;25.62;13.93;;;;;;;5.80;59.50;99622.19;4383860;32;20175;-87
2022/12/07 06:48:02;;;;;;;24.87;14.70;;;;;;;5.75;59.50;99629.16;4408501;32;20138;-87
2022/12/07 06:50:27;;;;;;;24.92;13.43;;;;;;;5.78;59.50;99629.13;4396351;32;20090;-87
2022/12/07 06:52:53;;;;;;;21.05;11.12;;;;;;;5.83;59.50;99632.47;4408849;32;20154;-88
2022/12/07 06:55:18;;;;;;;18.15;9.95;;;;;;;5.74;59.49;99632.63;4408882;32;20113;-87
2022/12/07 06:57:44;;;;;;;22.48;10.77;;;;;;;5.71;59.50;99630.09;4402061;32;20191;-87
2022/12/07 07:00:10;;;;;;;20.58;10.43;;;;;;;5.77;59.50;99633.44;4411096;32;20116;-87
2022/12/07 07:02:35;;;;;;;21.20;10.38;;;;;;;5.77;59.50;99630.84;4412854;32;20141;-87
2022/12/07 07:05:01;;;;;;;20.37;10.48;;;;;;;5.80;59.50;99635.13;4407779;32;20157;-87
2022/12/07 07:07:26;;;;;;;21.60;11.02;;;;;;;5.76;59.50;99626.56;4391393;32;20140;-88
2022/12/07 07:09:52;;;;;;;21.67;11.18;;;;;;;5.89;59.50;99624.62;4384930;32;20123;-88
2022/12/07 07:12:17;;;;;;;16.40;9.65;;;;;;;5.89;59.50;99626.38;4394712;32;20225;-87
2022/12/07 07:14:43;;;;;;;18.35;10.52;;;;;;;5.96;59.51;99622.88;4402916;32;20152;-87
2022/12/07 07:17:08;;;;;;;17.87;9.45;;;;;;;5.94;59.51;99627.22;4407616;32;20152;-88
2022/12/07 07:19:34;;;;;;;16.90;9.70;;;;;;;6.02;59.51;99630.50;4404719;32;20102;-87
2022/12/07 07:21:59;;;;;;;15.50;8.18;;;;;;;6.08;59.52;99630.41;4395497;32;20255;-88
2022/12/07 07:24:24;;;;;;;14.93;8.32;;;;;;;6.12;59.51;99624.31;4402953;32;20132;-87
2022/12/07 07:26:50;;;;;;;17.83;8.50;;;;;;;6.08;59.52;99627.84;4382191;32;20551;-88
2022/12/07 07:29:15;;;;;;;14.60;8.80;;;;;;;6.10;59.52;99639.84;4408274;32;20093;-88
2022/12/07 07:31:41;;;;;;;15.95;9.13;;;;;;;6.34;59.53;99625.66;4407407;32;20137;-88
2022/12/07 07:34:06;;;;;;;16.50;8.70;;;;;;;6.27;59.52;99633.56;4409260;32;20450;-88
2022/12/07 07:36:32;;;;;;;16.90;8.68;;;;;;;6.25;59.52;99631.00;4384652;32;20416;-87
2022/12/07 07:38:57;;;;;;;17.73;8.85;;;;;;;6.39;59.53;99629.06;4395023;32;20114;-87
2022/12/07 07:41:23;;;;;;;16.75;9.80;;;;;;;6.60;59.55;99634.72;4382477;32;21776;-88
2022/12/07 07:43:48;;;;;;;19.73;9.48;;;;;;;6.48;59.54;99630.63;4399059;32;20169;-87
2022/12/07 07:46:13;;;;;;;31.00;10.80;;;;;;;6.44;59.54;99629.81;4394200;32;20130;-88
2022/12/07 07:48:39;;;;;;;24.20;10.55;;;;;;;6.63;59.54;99630.38;4395369;32;20232;-88
2022/12/07 07:51:08;;;;;;;19.65;9.98;;;;;;;6.59;59.55;99635.59;4408673;32;20149;-88
2022/12/07 07:53:34;;;;;;;23.02;11.77;;;;;;;6.66;59.55;99626.87;4386387;32;20128;-88
2022/12/07 07:55:59;;;;;;;24.05;10.00;;;;;;;6.66;59.55;99630.31;4386269;32;20425;-88
2022/12/07 07:58:25;;;;;;;20.52;10.98;;;;;;;6.74;59.55;99631.00;4386227;32;20142;-88
2022/12/07 08:00:50;;;;;;;25.50;11.20;;;;;;;6.75;59.56;99634.44;4401188;32;20121;-88
2022/12/07 08:03:16;;;;;;;17.37;10.00;;;;;;;6.81;59.56;99631.72;4396108;32;20131;-88
2022/12/07 08:05:41;;;;;;;21.55;10.10;;;;;;;6.92;59.56;99640.16;4410275;32;20093;-88
2022/12/07 08:08:06;;;;;;;20.62;10.05;;;;;;;6.97;59.57;99635.75;4407007;32;20120;-87
2022/12/07 08:10:32;;;;;;;19.30;10.02;;;;;;;7.07;59.57;99626.91;4394583;32;20628;-88
2022/12/07 08:13:16;;;;;;;20.50;10.85;;;;;;;7.04;59.57;99624.38;4396514;32;20200;-88
2022/12/07 08:15:44;;;;;;;19.00;9.88;;;;;;;7.17;59.57;99629.34;4389942;32;20157;-88
2022/12/07 08:18:09;;;;;;;23.15;10.95;;;;;;;7.21;59.58;99630.97;4386132;32;20124;-88
2022/12/07 08:20:35;;;;;;;17.85;10.00;;;;;;;7.30;59.58;99634.22;4386450;32;20133;-87
2022/12/07 08:23:00;;;;;;;21.35;10.90;;;;;;;7.35;59.59;99632.41;4386158;32;20394;-88
2022/12/07 08:25:26;;;;;;;20.15;10.60;;;;;;;7.35;59.58;99640.19;4387764;32;20113;-88
2022/12/07 08:27:52;;;;;;;22.20;10.70;;;;;;;7.45;59.59;99634.78;4389177;32;20113;-87
2022/12/07 08:30:17;;;;;;;24.12;10.70;;;;;;;7.27;59.59;99638.59;4398606;32;20133;-87
2022/12/07 08:32:46;;;;;;;24.27;11.18;;;;;;;7.28;59.59;99646.34;4410888;32;20170;-88
2022/12/07 08:35:12;;;;;;;25.67;10.77;;;;;;;7.49;59.60;99647.62;4402368;32;20108;-87
2022/12/07 08:37:38;;;;;;;18.10;10.35;;;;;;;7.47;59.59;99640.78;4397124;32;20152;-86
2022/12/07 08:40:04;;;;;;;19.65;11.32;;;;;;;7.47;59.60;99646.81;4395876;32;20422;-88
2022/12/07 08:42:37;;;;;;;20.77;10.52;;;;;;;7.65;59.60;99643.00;4392289;32;20070;-87
2022/12/07 08:45:06;;;;;;;20.48;10.68;;;;;;;7.72;59.61;99641.97;4403597;32;20157;-88
2022/12/07 08:47:32;;;;;;;18.70;10.45;;;;;;;7.76;59.60;99643.59;4397042;32;20071;-87
2022/12/07 08:50:03;;;;;;;20.30;9.55;;;;;;;7.92;59.62;99637.19;4388713;32;20360;-88
2022/12/07 08:52:29;;;;;;;17.95;10.48;;;;;;;7.90;59.61;99636.38;4399421;32;20105;-88
2022/12/07 08:54:55;;;;;;;20.83;9.95;;;;;;;7.88;59.62;99643.34;4388238;32;20112;-88
2022/12/07 08:57:20;;;;;;;20.83;10.10;;;;;;;8.01;59.63;99643.87;4395678;32;20149;-88
2022/12/07 08:59:45;;;;;;;23.30;9.93;;;;;;;8.07;59.62;99645.50;4410372;32;20132;-88
2022/12/07 09:02:11;;;;;;;17.95;9.90;;;;;;;8.11;59.63;99645.38;4390615;32;20177;-87
2022/12/07 09:04:36;;;;;;;18.75;9.70;;;;;;;8.35;59.64;99643.13;4396770;32;20189;-87
2022/12/07 09:07:02;;;;;;;19.00;10.20;;;;;;;8.08;59.64;99639.44;4383017;32;20482;-88
2022/12/07 09:09:27;;;;;;;15.82;9.57;;;;;;;8.05;59.62;99644.69;4401303;32;22409;-87
2022/12/07 09:11:52;;;;;;;18.62;10.35;;;;;;;8.08;59.63;99645.47;4398390;32;20122;-87
2022/12/07 09:14:18;;;;;;;20.30;9.88;;;;;;;7.98;59.62;99647.41;4398175;32;20396;-86
2022/12/07 09:16:44;;;;;;;18.92;10.73;;;;;;;8.03;59.62;99642.09;4410561;32;20413;-87
2022/12/07 09:19:09;;;;;;;21.98;10.63;;;;;;;7.93;59.62;99636.28;4405130;32;20449;-88
2022/12/07 09:21:35;;;;;;;21.48;10.90;;;;;;;7.94;59.62;99631.97;4397983;32;20122;-87
2022/12/07 09:24:00;;;;;;;20.40;11.85;;;;;;;7.81;59.61;99634.00;4397979;32;20516;-87
2022/12/07 09:26:25;;;;;;;18.98;10.25;;;;;;;8.05;59.62;99630.00;4395406;32;20394;-87
2022/12/07 09:28:51;;;;;;;18.70;10.43;;;;;;;7.86;59.62;99633.91;4393438;32;20167;-87
2022/12/07 09:31:16;;;;;;;17.27;9.98;;;;;;;7.87;59.62;99630.41;4385604;32;20375;-88
2022/12/07 09:33:42;;;;;;;19.27;10.73;;;;;;;8.05;59.62;99631.72;4395743;32;20086;-87
2022/12/07 09:36:09;;;;;;;19.80;10.32;;;;;;;8.00;59.63;99627.47;4399535;32;20547;-88
2022/12/07 09:38:35;;;;;;;19.08;9.88;;;;;;;7.96;59.62;99625.00;4405004;32;20489;-88
2022/12/07 09:41:07;;;;;;;18.95;10.68;;;;;;;8.11;59.63;99621.22;4395501;32;20157;-88
2022/12/07 09:43:33;;;;;;;16.02;9.57;;;;;;;8.28;59.63;99614.72;4409386;32;20101;-87
2022/12/07 09:45:58;;;;;;;14.77;9.02;;;;;;;8.12;59.63;99612.53;4394882;32;20117;-88
2022/12/07 09:48:36;;;;;;;16.30;9.50;;;;;;;8.21;59.63;99620.94;4407518;32;20107;-88
2022/12/07 09:51:02;;;;;;;16.35;9.63;;;;;;;8.22;59.64;99612.25;4407536;32;20098;-88
2022/12/07 09:53:29;;;;;;;16.25;8.63;;;;;;;8.29;59.63;99608.66;4407893;32;20117;-88
2022/12/07 09:55:54;;;;;;;17.40;9.88;;;;;;;8.48;59.65;99613.37;4410293;32;20081;-88
2022/12/07 09:58:24;;;;;;;16.08;9.40;;;;;;;8.36;59.64;99608.53;4397699;32;20175;-88
2022/12/07 10:00:55;;;;;;;18.60;9.88;;;;;;;8.32;59.64;99608.56;4408272;32;20463;-87
2022/12/07 10:03:21;;;;;;;13.95;9.35;;;;;;;8.46;59.66;99600.47;4402741;32;20961;-87
2022/12/07 10:05:48;;;;;;;13.48;8.65;;;;;;;8.67;59.66;99603.38;4420197;32;20090;-85
2022/12/07 10:08:15;;;;;;;14.38;8.55;;;;;;;8.87;59.67;99611.50;4419996;32;20097;-87
2022/12/07 10:10:41;;;;;;;15.23;9.13;;;;;;;8.87;59.67;99601.97;4396399;32;20111;-88
2022/12/07 10:13:10;;;;;;;14.32;7.93;;;;;;;8.72;59.66;99599.75;4404590;32;20477;-86
2022/12/07 10:15:46;;;;;;;16.65;8.52;;;;;;;8.85;59.67;99600.31;4409371;32;20094;-87
2022/12/07 10:18:26;;;;;;;16.65;10.05;;;;;;;8.96;59.67;99597.41;4410167;32;21175;-87
2022/12/07 10:20:59;;;;;;;;;;;;;;;9.14;59.69;99596.87;4398544;32;20109;-88
2022/12/07 10:23:25;;;;;;;12.60;7.85;;;;;;;8.96;59.67;99590.47;4397275;32;19977;-86
2022/12/07 10:25:54;;;;;;;13.23;7.65;;;;;;;8.92;59.67;99581.06;4386726;32;20208;-86
2022/12/07 10:28:20;;;;;;;13.75;7.47;;;;;;;9.13;59.69;99583.06;4395050;32;20117;-87
2022/12/07 10:30:59;;;;;;;13.77;7.43;;;;;;;9.30;59.70;99579.97;4419061;32;20477;-87
2022/12/07 10:33:33;;;;;;;14.30;8.05;;;;;;;9.38;59.70;99587.53;4392714;32;20097;-87
2022/12/07 10:35:59;;;;;;;14.87;7.78;;;;;;;9.43;59.70;99578.69;4410503;32;20109;-87
2022/12/07 10:38:26;;;;;;;13.90;7.80;;;;;;;9.43;59.70;99583.88;4397626;32;20112;-87
2022/12/07 10:41:03;;;;;;;13.25;7.57;;;;;;;9.51;59.71;99581.09;4393023;32;20741;-87
2022/12/07 10:43:28;;;;;;;12.70;7.50;;;;;;;9.49;59.71;99588.94;4389976;32;20134;-87
2022/12/07 10:46:18;;;;;;;12.50;7.68;;;;;;;9.72;59.72;99577.81;4374188;32;20169;-87
2022/12/07 10:48:49;;;;;;;;;;;;;;;9.66;59.72;99579.75;4410281;32;20106;-87
2022/12/07 10:51:17;;;;;;;12.13;6.72;;;;;;;9.52;59.71;99578.44;4409795;32;20009;-88
2022/12/07 10:54:04;;;;;;;12.40;7.28;;;;;;;9.62;59.71;99578.12;4395776;32;20471;-87
2022/12/07 10:56:33;;;;;;;14.70;7.95;;;;;;;9.53;59.71;99572.34;4422490;32;20098;-87
2022/12/07 10:59:31;;;;;;;12.07;8.07;;;;;;;9.56;59.70;99576.59;4409733;32;20524;-87
2022/12/07 11:02:34;;;;;;;12.98;7.75;;;;;;;9.60;59.71;99580.78;4416523;32;20153;-87
2022/12/07 11:05:12;;;;;;;11.90;6.87;;;;;;;9.67;59.72;99579.69;4409646;32;20094;-87
2022/12/07 11:08:02;;;;;;;10.88;7.10;;;;;;;9.71;59.71;99562.28;4409863;32;20065;-88
2022/12/07 11:11:00;;;;;;;10.77;6.32;;;;;;;9.96;59.73;99564.94;4407299;32;20181;-88
2022/12/07 11:13:44;;;;;;;9.25;5.95;;;;;;;9.71;59.71;99557.94;4406664;32;20776;-87
2022/12/07 11:16:15;;;;;;;10.85;6.50;;;;;;;9.66;59.72;99569.34;4418704;32;20120;-87
2022/12/07 11:18:52;;;;;;;9.88;5.97;;;;;;;9.78;59.72;99559.44;4409512;32;20115;-87
2022/12/07 11:21:26;;;;;;;10.65;6.30;;;;;;;9.99;59.73;99557.91;4407231;32;20161;-87
2022/12/07 11:24:15;;;;;;;9.70;6.18;;;;;;;10.00;59.73;99554.41;4412189;32;20168;-87
2022/12/07 11:27:02;;;;;;;10.98;5.85;;;;;;;10.09;59.75;99551.47;4383881;32;20090;-88
2022/12/07 11:30:02;;;;;;;10.65;6.55;;;;;;;9.94;59.72;99551.16;4407204;32;20089;-86
2022/12/07 11:32:51;;;;;;;13.65;6.18;;;;;;;9.83;59.72;99554.09;4395681;32;20102;-87
2022/12/07 11:36:15;;;;;;;11.95;7.03;;;;;;;9.83;59.72;99549.72;4394565;32;20113;-87
2022/12/07 11:38:40;;;;;;;11.30;6.30;;;;;;;9.70;59.71;99550.16;4367518;32;20174;-87
2022/12/07 11:41:14;;;;;;;9.65;6.10;;;;;;;9.65;59.71;99549.47;4374371;32;20110;-87
2022/12/07 11:44:17;;;;;;;12.77;6.50;;;;;;;9.61;59.71;99559.09;4363529;32;20106;-87
2022/12/07 11:46:56;;;;;;;11.98;6.32;;;;;;;9.67;59.72;99563.25;4409684;32;20117;-87
2022/12/07 11:49:44;;;;;;;13.18;6.07;;;;;;;9.82;59.72;99558.44;4396387;32;20113;-87
2022/12/07 11:52:37;;;;;;;9.07;5.45;;;;;;;9.94;59.73;99553.75;4423155;32;20109;-87